Linjiang, China
Current Conditions -  °F | °C
As of 8:00 AM on Thursday 23 Oct 2014 (Local Time) from ZYCC Reporting Station
Smoke Smoke  
Wind Chill: 43°   Ceiling: Unl
Heat Index: 48°   Visibility: 1.5mi
Dew Point: 12°   Wind: 13mph
Humidity: 24%   Direction: 170°S
Pressure: 29.94"   Gusts: NA
Location:  41.82°N, 126.91°E
Report Text: ZYCC 230000Z 17006MPS 2500 FU NSC 09/M11 Q1014 BECMG TL00403000
Loading
Personal Weather Stations






























Interactive Weather Map
Tropical Storm Tracking
New forecast layout! Learn more

10-Day Weather Forecast

Advertisements
Track Severe Weather on mobile